createdAt,value
2018-09-06T00:01:41.218Z,999.90
2018-09-06T00:04:09.068Z,999.90
2018-09-06T00:06:36.949Z,999.90
2018-09-06T00:09:06.034Z,999.90
2018-09-06T00:11:33.881Z,999.90
2018-09-06T00:14:01.721Z,999.90
2018-09-06T00:16:29.569Z,999.90
2018-09-06T00:18:57.413Z,999.90
2018-09-06T00:21:25.258Z,999.90
2018-09-06T00:23:53.085Z,999.90
2018-09-06T00:26:20.921Z,999.90
2018-09-06T00:28:48.749Z,924.03
2018-09-06T00:31:16.590Z,955.70
2018-09-06T00:33:44.444Z,989.70
2018-09-06T00:36:12.267Z,955.60
2018-09-06T00:38:40.102Z,986.60
2018-09-06T00:41:07.948Z,970.53
2018-09-06T00:43:35.869Z,999.90
2018-09-06T00:46:03.885Z,999.90
2018-09-06T00:48:31.716Z,999.90
2018-09-06T00:50:59.557Z,999.90
2018-09-06T00:53:27.384Z,999.90
2018-09-06T00:55:55.221Z,999.90
2018-09-06T00:58:23.050Z,999.90
2018-09-06T01:00:50.877Z,999.90
2018-09-06T01:03:18.713Z,999.90
2018-09-06T01:05:46.549Z,999.90
2018-09-06T01:08:14.381Z,999.90
2018-09-06T01:10:42.209Z,999.90
2018-09-06T01:13:10.044Z,999.90
2018-09-06T01:15:37.884Z,999.90
2018-09-06T01:18:05.721Z,999.90
2018-09-06T01:20:33.581Z,974.80
2018-09-06T01:23:01.409Z,992.43
2018-09-06T01:25:35.625Z,999.90
2018-09-06T01:28:03.461Z,999.47
2018-09-06T01:30:31.297Z,990.33
2018-09-06T01:32:59.125Z,986.97
2018-09-06T01:35:26.958Z,988.17
2018-09-06T01:37:54.776Z,986.73
2018-09-06T01:40:22.618Z,994.23
2018-09-06T01:42:50.462Z,984.10
2018-09-06T01:45:18.297Z,999.90
2018-09-06T01:47:46.129Z,999.90
2018-09-06T01:50:13.974Z,999.90
2018-09-06T01:52:41.813Z,999.90
2018-09-06T01:55:09.731Z,999.90
2018-09-06T01:57:37.562Z,999.90
2018-09-06T02:00:05.498Z,999.90
2018-09-06T02:02:33.337Z,999.90
2018-09-06T02:05:01.170Z,999.90
2018-09-06T02:07:29.027Z,999.90
2018-09-06T02:09:56.863Z,999.90
2018-09-06T02:12:24.707Z,999.90
2018-09-06T02:14:52.542Z,999.90
2018-09-06T02:17:20.377Z,999.90
2018-09-06T02:19:48.222Z,999.90
2018-09-06T02:22:16.061Z,999.90
2018-09-06T02:24:43.890Z,999.90
2018-09-06T02:27:11.739Z,999.90
2018-09-06T02:29:39.579Z,999.90
2018-09-06T02:32:07.409Z,999.90
2018-09-06T02:34:35.302Z,999.90
2018-09-06T02:37:03.174Z,999.90
2018-09-06T02:39:31.097Z,999.90
2018-09-06T02:41:58.946Z,999.90
2018-09-06T02:44:26.800Z,999.90
2018-09-06T02:46:55.262Z,999.90
2018-09-06T02:49:28.592Z,999.90
2018-09-06T02:51:56.495Z,999.90
2018-09-06T02:54:24.332Z,999.90
2018-09-06T02:56:52.170Z,999.90
2018-09-06T02:59:20.012Z,999.90
2018-09-06T03:01:47.850Z,999.90
2018-09-06T03:04:15.691Z,999.90
2018-09-06T03:06:43.530Z,999.90
2018-09-06T03:09:11.364Z,999.90
2018-09-06T03:11:44.882Z,999.90
2018-09-06T03:14:13.023Z,999.90
2018-09-06T03:16:42.483Z,999.90
2018-09-06T03:19:10.311Z,999.90
2018-09-06T03:21:38.154Z,999.90
2018-09-06T03:24:05.977Z,977.43
2018-09-06T03:26:33.809Z,999.90
2018-09-06T03:29:01.646Z,999.90
2018-09-06T03:31:29.488Z,999.90
2018-09-06T03:33:57.321Z,999.90
2018-09-06T03:36:25.163Z,999.90
2018-09-06T03:38:52.996Z,999.90
2018-09-06T03:41:20.872Z,999.90
2018-09-06T03:43:48.707Z,999.90
2018-09-06T03:46:16.547Z,999.90
2018-09-06T03:48:44.381Z,874.73
2018-09-06T03:51:12.197Z,876.07
2018-09-06T03:53:40.039Z,889.37
2018-09-06T03:56:07.878Z,874.93
2018-09-06T03:58:35.911Z,865.03
2018-09-06T04:01:03.773Z,860.10
2018-09-06T04:03:31.591Z,845.83
2018-09-06T04:05:59.422Z,844.23
2018-09-06T04:08:27.272Z,848.30
2018-09-06T04:10:55.100Z,843.80
2018-09-06T04:13:22.947Z,890.57
2018-09-06T04:15:50.779Z,871.90
2018-09-06T04:18:18.648Z,885.03
2018-09-06T04:20:46.475Z,825.93
2018-09-06T04:23:14.306Z,846.07
2018-09-06T04:25:42.138Z,824.77
2018-09-06T04:28:09.974Z,855.27
2018-09-06T04:30:38.019Z,821.50
2018-09-06T04:33:05.867Z,868.40
2018-09-06T04:35:33.751Z,885.07
2018-09-06T04:38:01.539Z,841.90
2018-09-06T04:40:29.371Z,866.07
2018-09-06T04:42:57.201Z,872.33
2018-09-06T04:45:25.038Z,884.70
2018-09-06T04:47:52.876Z,888.73
2018-09-06T04:50:20.723Z,926.57
2018-09-06T04:52:48.563Z,868.60
2018-09-06T04:55:16.408Z,896.37
2018-09-06T04:57:44.219Z,904.07
2018-09-06T05:00:12.126Z,877.97
2018-09-06T05:02:39.893Z,892.57
2018-09-06T05:05:07.729Z,870.80
2018-09-06T05:07:35.575Z,894.00
2018-09-06T05:10:03.416Z,844.03
2018-09-06T05:12:31.251Z,854.53
2018-09-06T05:14:59.081Z,894.07
2018-09-06T05:17:26.911Z,864.47
2018-09-06T05:19:54.763Z,868.17
2018-09-06T05:22:22.594Z,877.57
2018-09-06T05:24:50.431Z,821.17
2018-09-06T05:27:18.267Z,814.37
2018-09-06T05:29:46.099Z,864.93
2018-09-06T05:32:13.926Z,870.93
2018-09-06T05:34:41.766Z,848.40
2018-09-06T05:37:09.598Z,815.77
2018-09-06T05:39:37.439Z,894.17
2018-09-06T05:42:05.338Z,861.47
2018-09-06T05:44:33.179Z,871.70
2018-09-06T05:47:01.001Z,853.13
2018-09-06T05:49:28.843Z,867.70
2018-09-06T05:51:57.009Z,873.33
2018-09-06T05:54:24.841Z,890.73
2018-09-06T05:56:52.683Z,827.20
2018-09-06T05:59:20.526Z,909.40
2018-09-06T06:01:48.383Z,821.63
2018-09-06T06:04:16.227Z,824.47
2018-09-06T06:06:44.059Z,835.17
2018-09-06T06:09:11.902Z,886.20
2018-09-06T06:11:39.756Z,864.03
2018-09-06T06:14:07.594Z,868.53
2018-09-06T06:16:35.426Z,819.90
2018-09-06T06:19:03.267Z,863.47
2018-09-06T06:21:31.101Z,900.63
2018-09-06T06:23:58.938Z,922.43
2018-09-06T06:26:26.758Z,776.83
2018-09-06T06:28:54.618Z,809.87
2018-09-06T06:31:22.447Z,787.10
2018-09-06T06:33:50.277Z,743.77
2018-09-06T06:36:18.114Z,762.37
2018-09-06T06:38:45.942Z,807.57
2018-09-06T06:41:13.769Z,789.87
2018-09-06T06:43:41.612Z,782.43
2018-09-06T06:46:09.446Z,798.30
2018-09-06T06:48:37.278Z,797.80
2018-09-06T06:51:05.222Z,888.97
2018-09-06T06:53:33.065Z,952.60
2018-09-06T06:56:00.910Z,917.43
2018-09-06T06:58:28.823Z,897.33
2018-09-06T07:00:56.614Z,887.97
2018-09-06T07:03:24.421Z,922.80
2018-09-06T07:05:52.271Z,915.10
2018-09-06T07:08:20.105Z,883.37
2018-09-06T07:10:47.955Z,853.33
2018-09-06T07:13:15.783Z,865.63
2018-09-06T07:15:43.622Z,913.17
2018-09-06T07:18:11.506Z,845.77
2018-09-06T07:20:39.309Z,866.70
2018-09-06T07:23:07.142Z,966.30
2018-09-06T07:25:34.985Z,876.83
2018-09-06T07:28:02.805Z,966.23
2018-09-06T07:30:30.668Z,973.40
2018-09-06T07:32:58.498Z,945.47
2018-09-06T07:35:26.390Z,990.17
2018-09-06T07:37:54.269Z,944.80
2018-09-06T07:40:22.101Z,962.07
2018-09-06T07:42:49.934Z,948.20
2018-09-06T07:45:17.769Z,946.53
2018-09-06T07:47:45.593Z,927.57
2018-09-06T07:50:13.521Z,917.10
2018-09-06T07:52:41.279Z,920.33
2018-09-06T07:55:09.114Z,996.50
2018-09-06T07:57:36.945Z,973.30
2018-09-06T08:00:04.982Z,925.37
2018-09-06T08:02:32.831Z,922.20
2018-09-06T08:05:00.671Z,999.90
2018-09-06T08:07:28.507Z,999.77
2018-09-06T08:09:56.340Z,986.30
2018-09-06T08:12:24.187Z,999.47
2018-09-06T08:14:52.018Z,972.83
2018-09-06T08:17:19.869Z,982.03
2018-09-06T08:19:47.698Z,963.73
2018-09-06T08:24:49.916Z,972.97
2018-09-06T08:27:17.746Z,975.87
2018-09-06T08:29:45.570Z,976.13
2018-09-06T08:32:13.439Z,954.50
2018-09-06T08:34:41.271Z,941.83
2018-09-06T08:37:09.115Z,943.07
2018-09-06T08:39:36.941Z,944.53
2018-09-06T08:42:04.784Z,986.57
2018-09-06T08:44:32.618Z,999.90
2018-09-06T08:47:00.458Z,999.90
2018-09-06T08:49:28.288Z,999.90
2018-09-06T08:51:56.148Z,999.90
2018-09-06T08:54:23.965Z,999.90
2018-09-06T08:56:51.807Z,999.47
2018-09-06T08:59:19.946Z,996.67
2018-09-06T09:01:47.781Z,999.90
2018-09-06T09:04:15.622Z,999.90
2018-09-06T09:06:43.457Z,999.90
2018-09-06T09:09:13.563Z,999.90
2018-09-06T09:11:41.441Z,999.37
2018-09-06T09:14:09.664Z,999.90
2018-09-06T09:16:37.615Z,999.90
2018-09-06T09:19:05.752Z,999.90
2018-09-06T09:21:33.624Z,999.90
2018-09-06T09:24:01.833Z,999.90
2018-09-06T09:26:29.706Z,999.90
2018-09-06T09:28:57.539Z,999.90
2018-09-06T09:31:25.396Z,995.40
2018-09-06T09:33:53.234Z,999.90
2018-09-06T09:36:21.066Z,999.90
2018-09-06T09:38:48.898Z,999.90
2018-09-06T09:41:16.749Z,999.90
2018-09-06T09:43:44.577Z,999.90
2018-09-06T09:48:39.562Z,999.90
2018-09-06T09:51:07.389Z,999.90
2018-09-06T09:53:35.243Z,999.90
2018-09-06T09:56:03.083Z,999.90
2018-09-06T09:58:30.920Z,999.90
2018-09-06T10:00:58.747Z,999.90
2018-09-06T10:03:32.103Z,999.90
2018-09-06T10:06:05.453Z,999.90
2018-09-06T10:08:38.887Z,999.90
2018-09-06T10:11:06.714Z,999.90
2018-09-06T10:13:34.553Z,999.90
2018-09-06T10:16:02.391Z,999.90
2018-09-06T10:18:30.226Z,999.90
2018-09-06T10:20:58.092Z,999.90
2018-09-06T10:23:25.942Z,999.90
2018-09-06T10:25:53.782Z,999.90
2018-09-06T10:28:21.626Z,999.90
2018-09-06T10:30:49.462Z,999.90
2018-09-06T10:33:17.296Z,999.90
2018-09-06T10:35:45.131Z,999.90
2018-09-06T10:38:12.983Z,999.90
2018-09-06T10:40:40.826Z,999.90
2018-09-06T10:43:08.642Z,999.90
2018-09-06T10:45:36.486Z,999.90
2018-09-06T10:48:04.327Z,999.90
2018-09-06T10:50:32.166Z,999.90
2018-09-06T10:53:00.003Z,999.90
2018-09-06T10:55:27.862Z,999.90
2018-09-06T10:57:55.715Z,999.90
2018-09-06T11:00:23.542Z,999.90
2018-09-06T11:02:51.411Z,999.90
2018-09-06T11:05:19.239Z,999.90
2018-09-06T11:07:47.091Z,999.90
2018-09-06T11:10:14.931Z,999.90
2018-09-06T11:12:42.767Z,999.90
2018-09-06T11:15:10.652Z,999.90
2018-09-06T11:17:38.463Z,999.90
2018-09-06T11:20:06.301Z,999.90
2018-09-06T11:22:34.368Z,999.90
2018-09-06T11:25:01.982Z,999.90
2018-09-06T11:27:29.826Z,999.90
2018-09-06T11:29:57.771Z,999.90
2018-09-06T11:32:25.628Z,999.90
2018-09-06T11:34:53.468Z,999.90
2018-09-06T11:37:21.298Z,999.90
2018-09-06T11:39:49.132Z,999.90
2018-09-06T11:42:16.971Z,999.90
2018-09-06T11:44:44.809Z,999.90
2018-09-06T11:47:12.692Z,999.90
2018-09-06T11:49:40.492Z,999.90
2018-09-06T11:52:08.405Z,999.90
2018-09-06T11:54:36.253Z,999.90
2018-09-06T11:57:04.136Z,999.90
2018-09-06T11:59:31.982Z,999.90
2018-09-06T12:01:59.843Z,999.90
2018-09-06T12:04:27.679Z,905.17
2018-09-06T12:06:55.505Z,888.47
2018-09-06T12:09:23.351Z,975.43
2018-09-06T12:11:51.177Z,804.73
2018-09-06T12:14:19.014Z,846.57
2018-09-06T12:16:46.832Z,772.33
2018-09-06T12:19:14.683Z,922.80
2018-09-06T12:21:42.532Z,999.90
2018-09-06T12:24:10.371Z,996.77
2018-09-06T12:26:38.193Z,799.10
2018-09-06T12:29:06.065Z,700.83
2018-09-06T12:31:33.903Z,820.83
2018-09-06T12:34:01.766Z,669.97
2018-09-06T12:36:29.608Z,968.80
2018-09-06T12:38:57.441Z,866.77
2018-09-06T12:41:25.286Z,672.30
2018-09-06T12:43:53.114Z,675.73
2018-09-06T12:46:20.953Z,627.13
2018-09-06T12:48:48.786Z,845.10
2018-09-06T12:51:16.623Z,667.97
2018-09-06T12:53:44.489Z,581.00
2018-09-06T12:56:12.414Z,550.17
2018-09-06T12:58:40.236Z,789.07
2018-09-06T13:01:08.075Z,670.53
2018-09-06T13:03:35.918Z,756.83
2018-09-06T13:06:03.754Z,780.30
2018-09-06T13:08:31.589Z,477.07
2018-09-06T13:10:59.426Z,321.17
2018-09-06T13:13:27.268Z,611.83
2018-09-06T13:15:55.133Z,608.07
2018-09-06T13:18:22.983Z,664.37
2018-09-06T13:20:50.801Z,759.10
2018-09-06T13:23:18.638Z,718.57
2018-09-06T13:25:46.475Z,451.13
2018-09-06T13:28:14.298Z,648.57
2018-09-06T13:30:42.133Z,769.73
2018-09-06T13:33:09.954Z,701.20
2018-09-06T13:35:37.812Z,934.50
2018-09-06T13:38:05.650Z,696.53
2018-09-06T13:40:33.494Z,478.30
2018-09-06T13:43:01.326Z,646.53
2018-09-06T13:45:29.184Z,808.53
2018-09-06T13:47:57.015Z,753.20
2018-09-06T13:50:24.859Z,706.60
2018-09-06T13:52:52.691Z,720.97
2018-09-06T13:55:20.529Z,849.27
2018-09-06T13:57:48.349Z,763.63
2018-09-06T14:00:16.302Z,803.00
2018-09-06T14:02:44.130Z,772.33
2018-09-06T14:05:12.037Z,475.53
2018-09-06T14:07:39.800Z,608.90
2018-09-06T14:10:07.638Z,303.17
2018-09-06T14:12:35.479Z,364.47
2018-09-06T14:15:03.305Z,186.40
2018-09-06T14:17:31.129Z,496.93
2018-09-06T14:19:58.981Z,476.10
2018-09-06T14:22:26.823Z,543.47
2018-09-06T14:24:54.651Z,365.70
2018-09-06T14:27:22.499Z,520.03
2018-09-06T14:29:50.327Z,669.83
2018-09-06T14:32:18.172Z,715.70
2018-09-06T14:34:46.001Z,704.00
2018-09-06T14:37:13.847Z,770.93
2018-09-06T14:39:41.675Z,696.33
2018-09-06T14:42:09.515Z,298.27
2018-09-06T14:44:37.346Z,317.50
2018-09-06T14:47:05.223Z,352.23
2018-09-06T14:49:33.047Z,354.30
2018-09-06T14:52:00.886Z,115.23
2018-09-06T14:54:28.713Z,357.93
2018-09-06T14:56:56.542Z,353.47
2018-09-06T14:59:24.399Z,340.23
2018-09-06T15:01:52.230Z,563.87
2018-09-06T15:04:20.063Z,915.23
2018-09-06T15:06:47.904Z,541.33
2018-09-06T15:09:15.733Z,648.47
2018-09-06T15:11:43.574Z,556.57
2018-09-06T15:14:11.439Z,474.80
2018-09-06T15:16:39.494Z,467.33
2018-09-06T15:19:07.362Z,424.00
2018-09-06T15:21:35.175Z,660.57
2018-09-06T15:24:03.043Z,684.03
2018-09-06T15:26:30.880Z,646.07
2018-09-06T15:28:58.711Z,574.80
2018-09-06T15:31:26.833Z,642.20
2018-09-06T15:33:54.658Z,492.47
2018-09-06T15:36:22.503Z,307.93
2018-09-06T15:38:50.438Z,475.53
2018-09-06T15:41:18.295Z,466.40
2018-09-06T15:43:46.155Z,335.27
2018-09-06T15:46:14.066Z,358.30
2018-09-06T15:48:41.951Z,284.13
2018-09-06T15:51:09.818Z,549.40
2018-09-06T15:53:38.124Z,589.07
2018-09-06T15:56:06.149Z,672.43
2018-09-06T15:58:34.184Z,771.53
2018-09-06T16:01:02.115Z,981.23
2018-09-06T16:03:29.955Z,882.73
2018-09-06T16:05:57.782Z,863.87
2018-09-06T16:08:25.838Z,806.50
2018-09-06T16:10:53.755Z,890.07
2018-09-06T16:13:21.966Z,284.80
2018-09-06T16:15:49.794Z,246.43
2018-09-06T16:18:17.630Z,257.93
2018-09-06T16:20:45.538Z,390.30
2018-09-06T16:23:13.379Z,308.80
2018-09-06T16:25:41.214Z,503.67
2018-09-06T16:28:09.540Z,623.43
2018-09-06T16:30:37.406Z,429.47
2018-09-06T16:33:05.247Z,560.23
2018-09-06T16:35:33.306Z,446.03
2018-09-06T16:38:01.220Z,515.17
2018-09-06T16:40:29.145Z,574.40
2018-09-06T16:42:56.993Z,645.30
2018-09-06T16:45:25.032Z,734.13
2018-09-06T16:47:52.880Z,665.23
2018-09-06T16:50:20.761Z,695.57
2018-09-06T16:52:48.648Z,780.80
2018-09-06T16:55:16.534Z,831.77
2018-09-06T16:57:44.371Z,833.10
2018-09-06T17:00:12.208Z,895.93
2018-09-06T17:02:40.049Z,957.03
2018-09-06T17:05:07.891Z,892.37
2018-09-06T17:07:35.770Z,992.03
2018-09-06T17:10:03.647Z,999.90
2018-09-06T17:12:31.497Z,999.90
2018-09-06T17:14:59.326Z,999.90
2018-09-06T17:17:33.422Z,999.90
2018-09-06T17:20:02.204Z,999.90
2018-09-06T17:22:30.112Z,999.90
2018-09-06T17:24:57.945Z,999.90
2018-09-06T17:27:25.826Z,999.90
2018-09-06T17:29:59.254Z,999.90
2018-09-06T17:32:27.186Z,999.90
2018-09-06T17:34:54.980Z,999.90
2018-09-06T17:37:22.899Z,999.90
2018-09-06T17:39:50.747Z,999.90
2018-09-06T17:42:18.589Z,999.90
2018-09-06T17:44:46.425Z,999.90
2018-09-06T17:47:14.298Z,999.90
2018-09-06T17:49:42.161Z,999.90
2018-09-06T17:52:10.047Z,999.90
2018-09-06T17:54:37.996Z,999.90
2018-09-06T17:57:06.157Z,999.90
2018-09-06T17:59:34.599Z,999.90
2018-09-06T18:02:02.437Z,999.90
2018-09-06T18:04:30.293Z,999.90
2018-09-06T18:06:58.230Z,999.90
2018-09-06T18:09:30.720Z,999.90
2018-09-06T18:11:58.577Z,999.90
2018-09-06T18:14:26.424Z,999.90
2018-09-06T18:16:58.780Z,999.90
2018-09-06T18:19:28.132Z,999.90
2018-09-06T18:21:56.011Z,999.90
2018-09-06T18:24:25.590Z,999.90
2018-09-06T18:26:53.609Z,999.90
2018-09-06T18:29:22.990Z,999.90
2018-09-06T18:31:53.182Z,999.90
2018-09-06T18:34:21.290Z,999.90
2018-09-06T18:36:49.116Z,999.90
2018-09-06T18:39:20.673Z,999.90
2018-09-06T18:41:49.118Z,999.90
2018-09-06T18:44:17.058Z,999.90
2018-09-06T18:46:44.937Z,999.90
2018-09-06T18:49:12.824Z,999.90
2018-09-06T18:51:44.338Z,999.90
2018-09-06T18:54:13.787Z,999.90
2018-09-06T18:56:46.643Z,999.90
2018-09-06T18:59:14.736Z,999.90
2018-09-06T19:01:42.634Z,999.90
2018-09-06T19:04:10.481Z,999.90
2018-09-06T19:06:38.414Z,999.90
2018-09-06T19:09:07.552Z,999.90
2018-09-06T19:11:35.431Z,999.90
2018-09-06T19:14:05.394Z,999.90
2018-09-06T19:16:33.566Z,999.90
2018-09-06T19:19:01.401Z,999.90
2018-09-06T19:21:29.242Z,999.90
2018-09-06T19:23:57.185Z,999.90
2018-09-06T19:26:25.393Z,999.90
2018-09-06T19:28:53.249Z,999.90
2018-09-06T19:31:21.198Z,999.90
2018-09-06T19:33:49.039Z,999.90
2018-09-06T19:36:16.866Z,999.90
2018-09-06T19:38:44.698Z,999.90
2018-09-06T19:41:13.011Z,999.90
2018-09-06T19:43:40.869Z,999.90
2018-09-06T19:46:08.702Z,999.90
2018-09-06T19:48:36.545Z,999.90
2018-09-06T19:51:05.467Z,999.90
2018-09-06T19:53:33.434Z,999.90
2018-09-06T19:56:01.261Z,999.90
2018-09-06T19:58:29.112Z,999.90
2018-09-06T20:00:57.040Z,999.90
2018-09-06T20:03:24.870Z,999.90
2018-09-06T20:05:52.730Z,999.90
2018-09-06T20:08:20.626Z,999.90
2018-09-06T20:10:48.548Z,999.90
2018-09-06T20:13:16.461Z,999.90
2018-09-06T20:15:44.359Z,999.90
2018-09-06T20:18:12.252Z,999.90
2018-09-06T20:20:40.259Z,999.90
2018-09-06T20:23:08.090Z,999.90
2018-09-06T20:25:35.963Z,999.90
2018-09-06T20:28:04.141Z,999.90
2018-09-06T20:30:32.070Z,999.90
2018-09-06T20:32:59.964Z,999.90
2018-09-06T20:35:27.806Z,999.90
2018-09-06T20:37:55.651Z,999.90
2018-09-06T20:40:23.487Z,999.90
2018-09-06T20:42:51.319Z,999.90
2018-09-06T20:45:19.241Z,999.90
2018-09-06T20:47:47.110Z,999.90
2018-09-06T20:50:14.953Z,999.90
2018-09-06T20:52:42.790Z,999.90
2018-09-06T20:55:10.625Z,999.90
2018-09-06T20:57:38.471Z,999.90
2018-09-06T21:00:06.460Z,999.90
2018-09-06T21:02:39.408Z,999.90
2018-09-06T21:05:08.068Z,999.90
2018-09-06T21:07:35.907Z,999.90
2018-09-06T21:10:04.178Z,999.90
2018-09-06T21:12:32.064Z,999.90
2018-09-06T21:15:00.475Z,999.90
2018-09-06T21:17:28.491Z,999.90
2018-09-06T21:19:56.545Z,999.90
2018-09-06T21:22:24.575Z,999.90
2018-09-06T21:24:52.700Z,999.90
2018-09-06T21:27:20.711Z,999.90
2018-09-06T21:29:48.722Z,999.90
2018-09-06T21:32:16.823Z,999.90
2018-09-06T21:34:44.847Z,999.90
2018-09-06T21:37:12.857Z,999.90
2018-09-06T21:39:40.906Z,999.90
2018-09-06T21:42:08.951Z,999.90
2018-09-06T21:44:36.960Z,999.90
2018-09-06T21:47:05.042Z,999.90
2018-09-06T21:49:33.056Z,999.90
2018-09-06T21:52:01.114Z,999.90
2018-09-06T21:54:29.230Z,999.90
2018-09-06T21:56:57.245Z,999.90
2018-09-06T21:59:25.270Z,999.90
2018-09-06T22:01:53.641Z,999.90
2018-09-06T22:04:21.663Z,999.90
2018-09-06T22:06:49.696Z,999.90
2018-09-06T22:09:17.712Z,999.90
2018-09-06T22:11:45.767Z,999.90
2018-09-06T22:14:13.864Z,999.90
2018-09-06T22:16:41.894Z,999.90
2018-09-06T22:19:09.898Z,999.90
2018-09-06T22:21:37.931Z,999.90
2018-09-06T22:24:05.968Z,999.90
2018-09-06T22:26:33.978Z,999.90
2018-09-06T22:29:01.994Z,999.90
2018-09-06T22:31:30.016Z,999.90
2018-09-06T22:33:58.023Z,999.90
2018-09-06T22:36:26.038Z,999.90
2018-09-06T22:38:54.050Z,999.90
2018-09-06T22:41:22.061Z,999.90
2018-09-06T22:43:50.080Z,999.90
2018-09-06T22:46:18.112Z,999.90
2018-09-06T22:48:46.157Z,999.90
2018-09-06T22:51:14.163Z,999.90
2018-09-06T22:53:42.178Z,999.90
2018-09-06T22:56:10.207Z,999.90
2018-09-06T22:58:38.223Z,999.90
2018-09-06T23:01:06.688Z,999.90
2018-09-06T23:03:37.037Z,999.90
2018-09-06T23:06:05.083Z,999.90
2018-09-06T23:08:33.093Z,999.90
2018-09-06T23:11:01.113Z,999.90
2018-09-06T23:13:29.114Z,999.90
2018-09-06T23:15:57.143Z,999.90
2018-09-06T23:18:25.159Z,999.90
2018-09-06T23:20:53.183Z,999.90
2018-09-06T23:23:21.199Z,999.90
2018-09-06T23:25:49.302Z,999.90
2018-09-06T23:28:17.316Z,999.90
2018-09-06T23:30:45.330Z,999.90
2018-09-06T23:33:13.390Z,999.90
2018-09-06T23:35:44.097Z,999.90
2018-09-06T23:38:12.527Z,999.90
2018-09-06T23:40:44.807Z,999.90
2018-09-06T23:43:12.830Z,999.90
2018-09-06T23:45:40.835Z,999.90
2018-09-06T23:48:08.867Z,999.90
2018-09-06T23:50:36.879Z,999.90
2018-09-06T23:53:04.893Z,999.90
2018-09-06T23:55:32.906Z,999.90
2018-09-06T23:58:00.923Z,999.90
